createdAt,value
2019-03-28T00:01:22.689Z,11.83
2019-03-28T00:03:57.557Z,12.18
2019-03-28T00:06:34.254Z,10.85
2019-03-28T00:09:07.736Z,12.75
2019-03-28T00:11:38.526Z,11.63
2019-03-28T00:14:21.501Z,12.43
2019-03-28T00:17:01.607Z,11.22
2019-03-28T00:19:44.815Z,11.75
2019-03-28T00:22:33.295Z,12.60
2019-03-28T00:25:13.015Z,12.07
2019-03-28T00:27:57.498Z,12.95
2019-03-28T00:30:46.721Z,12.73
2019-03-28T00:33:25.889Z,13.50
2019-03-28T00:36:08.729Z,12.10
2019-03-28T00:38:40.065Z,15.30
2019-03-28T00:41:27.771Z,14.75
2019-03-28T00:43:58.774Z,13.55
2019-03-28T00:46:37.021Z,14.07
2019-03-28T00:49:37.564Z,13.70
2019-03-28T00:52:12.846Z,13.40
2019-03-28T00:54:57.272Z,14.18
2019-03-28T00:57:41.258Z,12.90
2019-03-28T01:00:27.333Z,14.53
2019-03-28T01:03:09.179Z,13.25
2019-03-28T01:05:43.176Z,13.40
2019-03-28T01:08:24.623Z,13.58
2019-03-28T01:10:55.696Z,11.97
2019-03-28T01:13:34.097Z,10.65
2019-03-28T01:16:08.795Z,12.40
2019-03-28T01:18:45.343Z,11.50
2019-03-28T01:21:27.588Z,11.95
2019-03-28T01:23:59.665Z,14.05
2019-03-28T01:26:31.840Z,12.85
2019-03-28T01:29:06.740Z,14.53
2019-03-28T01:31:42.483Z,12.82
2019-03-28T01:34:13.495Z,12.98
2019-03-28T01:36:47.568Z,13.48
2019-03-28T01:39:19.035Z,11.38
2019-03-28T01:41:50.251Z,11.50
2019-03-28T01:44:25.206Z,12.13
2019-03-28T01:47:08.135Z,11.80
2019-03-28T01:49:43.579Z,13.28
2019-03-28T01:52:21.769Z,13.88
2019-03-28T01:54:57.692Z,13.78
2019-03-28T01:57:28.091Z,14.50
2019-03-28T02:00:06.548Z,13.70
2019-03-28T02:02:37.500Z,12.93
2019-03-28T02:05:43.397Z,12.60
2019-03-28T02:08:42.148Z,15.05
2019-03-28T02:15:11.577Z,13.08
2019-03-28T02:17:44.755Z,14.73
2019-03-28T02:20:23.356Z,13.93
2019-03-28T02:23:04.348Z,16.25
2019-03-28T02:25:45.558Z,15.72
2019-03-28T02:28:42.232Z,15.78
2019-03-28T02:31:17.580Z,16.85
2019-03-28T02:33:48.148Z,15.95
2019-03-28T02:36:18.863Z,18.23
2019-03-28T02:38:49.710Z,18.10
2019-03-28T02:41:19.932Z,18.17
2019-03-28T02:43:50.247Z,19.05
2019-03-28T02:46:22.585Z,17.80
2019-03-28T02:48:53.754Z,17.35
2019-03-28T02:51:24.083Z,17.15
2019-03-28T02:54:07.785Z,17.65
2019-03-28T02:56:38.017Z,16.23
2019-03-28T02:59:08.312Z,19.23
2019-03-28T03:01:38.542Z,18.52
2019-03-28T03:04:08.772Z,18.32
2019-03-28T03:06:39.055Z,18.75
2019-03-28T03:09:10.958Z,18.50
2019-03-28T03:11:42.911Z,17.80
2019-03-28T03:14:13.159Z,18.67
2019-03-28T03:16:43.345Z,18.62
2019-03-28T03:19:13.645Z,17.95
2019-03-28T03:21:43.825Z,19.00
2019-03-28T03:24:14.123Z,17.20
2019-03-28T03:26:44.419Z,14.53
2019-03-28T03:29:14.601Z,18.70
2019-03-28T03:31:47.287Z,18.62
2019-03-28T03:34:17.953Z,17.82
2019-03-28T03:36:48.647Z,16.75
2019-03-28T03:39:19.387Z,17.00
2019-03-28T03:41:53.566Z,18.42
2019-03-28T03:44:26.382Z,18.42
2019-03-28T03:46:56.699Z,17.62
2019-03-28T03:49:27.305Z,19.42
2019-03-28T03:51:57.772Z,18.17
2019-03-28T03:54:28.188Z,20.10
2019-03-28T03:56:59.113Z,17.62
2019-03-28T03:59:29.662Z,18.37
2019-03-28T04:02:03.650Z,18.42
2019-03-28T04:04:50.263Z,18.40
2019-03-28T04:07:20.797Z,18.23
2019-03-28T04:09:51.116Z,17.30
2019-03-28T04:12:21.251Z,16.23
2019-03-28T04:14:51.468Z,16.95
2019-03-28T04:17:21.948Z,14.80
2019-03-28T04:19:52.060Z,16.27
2019-03-28T04:22:22.372Z,18.25
2019-03-28T04:24:52.541Z,15.78
2019-03-28T04:27:22.852Z,16.80
2019-03-28T04:29:53.010Z,16.85
2019-03-28T04:32:23.592Z,15.38
2019-03-28T04:34:53.783Z,18.37
2019-03-28T04:37:24.224Z,16.93
2019-03-28T04:39:54.549Z,19.10
2019-03-28T04:42:39.719Z,17.37
2019-03-28T04:45:10.235Z,18.02
2019-03-28T04:47:43.879Z,16.32
2019-03-28T04:50:14.500Z,17.65
2019-03-28T04:52:45.548Z,16.80
2019-03-28T04:55:15.860Z,17.32
2019-03-28T04:57:46.050Z,16.60
2019-03-28T05:00:16.845Z,18.42
2019-03-28T05:02:47.155Z,18.23
2019-03-28T05:05:17.518Z,15.65
2019-03-28T05:07:47.755Z,17.23
2019-03-28T05:10:18.172Z,15.28
2019-03-28T05:12:48.634Z,16.35
2019-03-28T05:15:34.718Z,17.87
2019-03-28T05:18:05.206Z,14.73
2019-03-28T05:20:35.606Z,17.02
2019-03-28T05:23:06.216Z,15.25
2019-03-28T05:25:39.228Z,15.63
2019-03-28T05:28:16.930Z,15.32
2019-03-28T05:30:49.151Z,16.37
2019-03-28T05:33:27.724Z,14.23
2019-03-28T05:36:04.339Z,14.23
2019-03-28T05:38:30.483Z,14.10
2019-03-28T05:41:01.508Z,15.00
2019-03-28T05:43:48.886Z,14.87
2019-03-28T05:46:19.540Z,15.68
2019-03-28T05:48:49.983Z,12.85
2019-03-28T05:51:23.308Z,13.30
2019-03-28T05:53:54.757Z,13.60
2019-03-28T05:56:25.226Z,14.43
2019-03-28T05:58:55.578Z,14.93
2019-03-28T06:01:27.202Z,13.00
2019-03-28T06:03:58.028Z,13.38
2019-03-28T06:06:28.985Z,13.35
2019-03-28T06:08:59.449Z,13.80
2019-03-28T06:11:30.435Z,13.78
2019-03-28T06:14:01.162Z,13.10
2019-03-28T06:16:31.682Z,14.80
2019-03-28T06:19:02.023Z,13.25
2019-03-28T06:21:32.277Z,13.40
2019-03-28T06:24:13.632Z,11.57
2019-03-28T06:26:45.584Z,11.95
2019-03-28T06:29:23.738Z,14.55
2019-03-28T06:31:55.268Z,14.25
2019-03-28T06:34:21.485Z,13.28
2019-03-28T06:36:51.844Z,13.00
2019-03-28T06:39:22.391Z,13.60
2019-03-28T06:41:56.544Z,12.35
2019-03-28T06:44:30.815Z,13.03
2019-03-28T06:47:02.688Z,12.95
2019-03-28T06:49:33.291Z,13.85
2019-03-28T06:52:04.115Z,13.53
2019-03-28T06:54:34.492Z,13.15
2019-03-28T06:57:04.658Z,14.47
2019-03-28T06:59:37.554Z,15.18
2019-03-28T07:02:07.256Z,14.13
2019-03-28T07:04:40.470Z,14.35
2019-03-28T07:07:11.123Z,13.38
2019-03-28T07:09:41.343Z,14.20
2019-03-28T07:12:15.817Z,12.73
2019-03-28T07:14:46.325Z,19.62
2019-03-28T07:17:16.918Z,21.93
2019-03-28T07:19:47.506Z,16.12
2019-03-28T07:22:17.803Z,13.83
2019-03-28T07:24:55.370Z,16.45
2019-03-28T07:27:25.724Z,17.15
2019-03-28T07:29:55.914Z,15.63
2019-03-28T07:32:26.271Z,18.23
2019-03-28T07:34:56.506Z,14.35
2019-03-28T07:37:28.227Z,13.60
2019-03-28T07:39:58.577Z,16.37
2019-03-28T07:42:30.049Z,14.85
2019-03-28T07:45:00.369Z,12.65
2019-03-28T07:47:30.705Z,13.90
2019-03-28T07:50:00.882Z,12.73
2019-03-28T07:52:31.184Z,13.58
2019-03-28T07:55:12.589Z,13.62
2019-03-28T07:58:28.028Z,12.65
2019-03-28T08:00:49.808Z,13.53
2019-03-28T08:03:20.009Z,13.25
2019-03-28T08:05:50.376Z,14.40
2019-03-28T08:08:20.720Z,13.90
2019-03-28T08:10:51.073Z,13.58
2019-03-28T08:13:21.469Z,13.78
2019-03-28T08:15:51.973Z,13.53
2019-03-28T08:18:23.845Z,12.68
2019-03-28T08:20:54.269Z,11.80
2019-03-28T08:23:24.710Z,12.03
2019-03-28T08:25:55.034Z,11.95
2019-03-28T08:28:25.350Z,11.83
2019-03-28T08:30:55.863Z,11.97
2019-03-28T08:33:26.565Z,11.05
2019-03-28T08:35:57.264Z,12.07
2019-03-28T08:38:27.880Z,10.35
2019-03-28T08:40:58.115Z,10.23
2019-03-28T08:43:30.562Z,11.88
2019-03-28T08:46:00.739Z,11.57
2019-03-28T08:48:30.961Z,12.05
2019-03-28T08:51:01.176Z,11.45
2019-03-28T08:53:31.535Z,12.60
2019-03-28T08:56:01.779Z,8.60
2019-03-28T08:58:32.158Z,11.30
2019-03-28T09:01:02.807Z,11.90
2019-03-28T09:03:33.495Z,10.95
2019-03-28T09:06:05.312Z,11.55
2019-03-28T09:08:35.732Z,8.93
2019-03-28T09:11:06.280Z,10.90
2019-03-28T09:13:36.554Z,11.08
2019-03-28T09:16:06.904Z,11.28
2019-03-28T09:18:37.240Z,10.55
2019-03-28T09:21:07.803Z,11.55
2019-03-28T09:23:38.344Z,10.55
2019-03-28T09:26:13.048Z,10.82
2019-03-28T09:28:43.280Z,10.88
2019-03-28T09:31:20.405Z,12.13
2019-03-28T09:33:58.033Z,11.48
2019-03-28T09:36:28.547Z,12.05
2019-03-28T09:38:58.899Z,12.55
2019-03-28T09:41:29.647Z,12.88
2019-03-28T09:44:02.109Z,14.38
2019-03-28T09:46:33.955Z,13.53
2019-03-28T09:49:04.371Z,12.63
2019-03-28T09:51:35.431Z,12.75
2019-03-28T09:54:08.630Z,12.10
2019-03-28T09:56:42.191Z,12.80
2019-03-28T09:59:12.473Z,11.40
2019-03-28T10:01:43.266Z,12.82
2019-03-28T10:04:13.730Z,13.70
2019-03-28T10:06:46.734Z,13.28
2019-03-28T10:09:17.000Z,13.35
2019-03-28T10:11:47.194Z,12.15
2019-03-28T10:14:17.608Z,11.15
2019-03-28T10:16:48.102Z,12.23
2019-03-28T10:19:18.231Z,11.95
2019-03-28T10:21:48.521Z,11.22
2019-03-28T10:24:18.814Z,10.95
2019-03-28T10:26:49.220Z,10.10
2019-03-28T10:29:19.369Z,11.45
2019-03-28T10:31:49.857Z,10.05
2019-03-28T10:34:20.311Z,10.28
2019-03-28T10:36:50.468Z,10.30
2019-03-28T10:39:20.676Z,10.65
2019-03-28T10:41:51.024Z,9.93
2019-03-28T10:44:21.295Z,10.40
2019-03-28T10:46:51.525Z,10.95
2019-03-28T10:49:21.784Z,9.83
2019-03-28T10:51:51.910Z,11.45
2019-03-28T10:54:25.492Z,10.13
2019-03-28T10:56:57.550Z,9.90
2019-03-28T10:59:25.957Z,8.35
2019-03-28T11:01:56.216Z,10.88
2019-03-28T11:04:26.371Z,9.85
2019-03-28T11:06:56.697Z,8.83
2019-03-28T11:09:26.990Z,8.35
2019-03-28T11:11:57.240Z,6.62
2019-03-28T11:14:27.454Z,8.00
2019-03-28T11:16:57.639Z,9.43
2019-03-28T11:19:27.897Z,8.75
2019-03-28T11:21:58.058Z,9.20
2019-03-28T11:24:28.171Z,9.53
2019-03-28T11:26:58.534Z,8.05
2019-03-28T11:29:28.684Z,7.70
2019-03-28T11:31:58.922Z,8.08
2019-03-28T11:34:29.266Z,6.58
2019-03-28T11:36:59.521Z,7.20
2019-03-28T11:39:29.710Z,7.60
2019-03-28T11:42:00.536Z,7.50
2019-03-28T11:44:30.744Z,17.00
2019-03-28T11:47:00.992Z,23.57
2019-03-28T11:49:31.162Z,13.40
2019-03-28T11:52:01.333Z,8.25
2019-03-28T11:54:31.649Z,7.28
2019-03-28T11:57:01.798Z,9.95
2019-03-28T11:59:32.557Z,7.03
2019-03-28T12:02:19.063Z,6.92
2019-03-28T12:04:38.409Z,19.05
2019-03-28T12:07:07.094Z,7.75
2019-03-28T12:09:38.024Z,6.72
2019-03-28T12:12:08.338Z,7.87
2019-03-28T12:14:38.483Z,7.80
2019-03-28T12:17:08.655Z,8.20
2019-03-28T12:19:39.093Z,8.33
2019-03-28T12:22:09.370Z,6.65
2019-03-28T12:24:39.537Z,7.97
2019-03-28T12:27:09.733Z,7.60
2019-03-28T12:29:40.064Z,8.40
2019-03-28T12:32:14.295Z,8.78
2019-03-28T12:34:42.050Z,6.78
2019-03-28T12:37:12.293Z,8.63
2019-03-28T12:39:42.414Z,8.85
2019-03-28T12:42:12.596Z,10.05
2019-03-28T12:44:56.070Z,8.20
2019-03-28T12:47:14.951Z,10.85
2019-03-28T12:49:45.083Z,8.40
2019-03-28T12:52:15.200Z,8.90
2019-03-28T12:54:45.397Z,8.68
2019-03-28T12:57:15.728Z,7.33
2019-03-28T12:59:46.045Z,8.83
2019-03-28T13:02:27.490Z,11.30
2019-03-28T13:04:48.005Z,9.80
2019-03-28T13:07:18.228Z,8.95
2019-03-28T13:09:48.433Z,8.63
2019-03-28T13:12:18.571Z,9.40
2019-03-28T13:14:48.810Z,8.43
2019-03-28T13:17:18.969Z,9.33
2019-03-28T13:19:49.118Z,9.13
2019-03-28T13:22:19.297Z,11.50
2019-03-28T13:24:49.451Z,9.50
2019-03-28T13:27:19.671Z,9.50
2019-03-28T13:29:49.900Z,9.63
2019-03-28T13:32:20.161Z,8.08
2019-03-28T13:34:51.161Z,7.20
2019-03-28T13:37:21.486Z,8.70
2019-03-28T13:39:52.099Z,7.92
2019-03-28T13:42:23.555Z,8.68
2019-03-28T13:44:53.797Z,8.73
2019-03-28T13:47:24.577Z,8.20
2019-03-28T13:49:54.854Z,9.90
2019-03-28T13:52:25.295Z,7.62
2019-03-28T13:54:55.461Z,8.55
2019-03-28T13:57:25.645Z,9.43
2019-03-28T13:59:55.821Z,8.10
2019-03-28T14:02:26.297Z,7.45
2019-03-28T14:04:56.444Z,6.62
2019-03-28T14:07:26.719Z,7.92
2019-03-28T14:09:56.905Z,8.40
2019-03-28T14:12:27.216Z,6.17
2019-03-28T14:14:57.481Z,7.28
2019-03-28T14:17:27.701Z,7.97
2019-03-28T14:19:57.925Z,6.65
2019-03-28T14:22:28.039Z,7.20
2019-03-28T14:24:58.253Z,9.00
2019-03-28T14:27:28.527Z,8.55
2019-03-28T14:29:58.900Z,9.00
2019-03-28T14:32:29.236Z,8.90
2019-03-28T14:34:59.452Z,8.05
2019-03-28T14:37:29.685Z,9.23
2019-03-28T14:39:59.815Z,8.40
2019-03-28T14:42:31.032Z,7.75
2019-03-28T14:45:01.472Z,9.20
2019-03-28T14:47:31.779Z,8.98
2019-03-28T14:50:02.227Z,8.73
2019-03-28T14:52:35.210Z,8.68
2019-03-28T14:55:06.000Z,9.13
2019-03-28T14:57:37.854Z,9.35
2019-03-28T15:00:12.316Z,8.30
2019-03-28T15:02:42.578Z,7.20
2019-03-28T15:05:12.833Z,7.97
2019-03-28T15:07:43.100Z,8.50
2019-03-28T15:10:14.052Z,8.58
2019-03-28T15:12:44.490Z,8.88
2019-03-28T15:15:14.807Z,8.60
2019-03-28T15:17:45.195Z,8.80
2019-03-28T15:20:15.424Z,9.90
2019-03-28T15:22:45.639Z,9.75
2019-03-28T15:25:15.998Z,7.83
2019-03-28T15:27:46.219Z,8.18
2019-03-28T15:30:16.876Z,8.40
2019-03-28T15:32:47.129Z,9.05
2019-03-28T15:35:17.374Z,9.75
2019-03-28T15:37:47.719Z,9.85
2019-03-28T15:40:17.937Z,12.80
2019-03-28T15:42:48.244Z,10.43
2019-03-28T15:45:18.452Z,10.88
2019-03-28T15:47:51.824Z,12.93
2019-03-28T15:50:20.533Z,11.28
2019-03-28T15:52:50.871Z,13.62
2019-03-28T15:55:21.156Z,10.80
2019-03-28T15:57:51.299Z,9.90
2019-03-28T16:00:22.057Z,9.33
2019-03-28T16:02:52.289Z,10.20
2019-03-28T16:05:22.747Z,10.45
2019-03-28T16:07:53.206Z,10.28
2019-03-28T16:10:23.857Z,9.23
2019-03-28T16:12:54.075Z,9.65
2019-03-28T16:15:24.520Z,9.63
2019-03-28T16:17:57.564Z,8.25
2019-03-28T16:20:27.105Z,7.83
2019-03-28T16:22:57.389Z,8.00
2019-03-28T16:25:27.771Z,9.15
2019-03-28T16:27:58.034Z,8.70
2019-03-28T16:30:40.754Z,8.83
2019-03-28T16:33:11.231Z,10.15
2019-03-28T16:35:41.517Z,8.58
2019-03-28T16:38:11.780Z,9.65
2019-03-28T16:40:42.196Z,8.35
2019-03-28T16:43:31.744Z,9.13
2019-03-28T16:46:07.749Z,8.88
2019-03-28T16:48:27.967Z,8.88
2019-03-28T16:51:01.184Z,8.65
2019-03-28T16:53:31.383Z,7.00
2019-03-28T16:56:01.609Z,7.50
2019-03-28T16:58:31.861Z,7.92
2019-03-28T17:01:02.093Z,6.55
2019-03-28T17:03:32.380Z,7.03
2019-03-28T17:06:04.139Z,7.45
2019-03-28T17:08:34.691Z,7.20
2019-03-28T17:11:05.287Z,8.18
2019-03-28T17:13:35.662Z,7.33
2019-03-28T17:16:06.128Z,7.92
2019-03-28T17:18:36.259Z,6.62
2019-03-28T17:21:06.521Z,7.22
2019-03-28T17:23:36.848Z,9.00
2019-03-28T17:26:07.086Z,8.60
2019-03-28T17:28:37.419Z,8.10
2019-03-28T17:31:07.760Z,9.43
2019-03-28T17:33:38.131Z,8.70
2019-03-28T17:36:09.084Z,10.23
2019-03-28T17:38:39.396Z,9.70
2019-03-28T17:41:10.196Z,8.83
2019-03-28T17:43:41.787Z,10.88
2019-03-28T17:46:12.580Z,10.10
2019-03-28T17:48:43.001Z,9.40
2019-03-28T17:51:13.217Z,11.90
2019-03-28T17:53:43.429Z,8.98
2019-03-28T17:56:13.654Z,10.80
2019-03-28T17:58:44.170Z,10.28
2019-03-28T18:01:14.714Z,11.10
2019-03-28T18:03:45.110Z,10.93
2019-03-28T18:06:17.176Z,12.23
2019-03-28T18:08:47.698Z,14.50
2019-03-28T18:11:18.544Z,23.70
2019-03-28T18:13:49.624Z,12.60
2019-03-28T18:16:20.281Z,14.07
2019-03-28T18:18:51.042Z,12.70
2019-03-28T18:21:22.224Z,11.48
2019-03-28T18:23:53.273Z,13.80
2019-03-28T18:26:23.983Z,13.30
2019-03-28T18:28:55.215Z,13.90
2019-03-28T18:31:29.909Z,12.88
2019-03-28T18:34:00.358Z,15.80
2019-03-28T18:36:31.679Z,15.30
2019-03-28T18:39:02.876Z,13.30
2019-03-28T18:41:33.777Z,12.50
2019-03-28T18:44:04.160Z,13.62
2019-03-28T18:46:34.858Z,13.08
2019-03-28T18:49:05.549Z,15.32
2019-03-28T18:51:36.043Z,12.10
2019-03-28T18:54:06.640Z,11.18
2019-03-28T18:56:37.576Z,11.53
2019-03-28T18:59:18.651Z,10.80
2019-03-28T19:02:02.913Z,11.48
2019-03-28T19:04:37.468Z,11.10
2019-03-28T19:07:09.263Z,11.75
2019-03-28T19:09:45.281Z,10.32
2019-03-28T19:12:32.454Z,10.93
2019-03-28T19:15:02.874Z,10.82
2019-03-28T19:17:33.941Z,10.10
2019-03-28T19:20:04.476Z,11.05
2019-03-28T19:22:34.780Z,10.88
2019-03-28T19:25:05.458Z,11.28
2019-03-28T19:27:35.814Z,11.60
2019-03-28T19:30:06.809Z,10.98
2019-03-28T19:32:36.991Z,10.48
2019-03-28T19:35:09.487Z,10.00
2019-03-28T19:37:40.590Z,9.80
2019-03-28T19:40:13.933Z,8.33
2019-03-28T19:42:48.961Z,8.20
2019-03-28T19:45:42.191Z,9.00
2019-03-28T19:48:15.683Z,7.95
2019-03-28T19:50:46.401Z,8.75
2019-03-28T19:53:19.031Z,8.30
2019-03-28T19:55:50.571Z,7.87
2019-03-28T19:58:31.215Z,9.55
2019-03-28T20:01:03.228Z,8.28
2019-03-28T20:03:33.865Z,7.95
2019-03-28T20:06:04.439Z,7.80
2019-03-28T20:08:35.076Z,8.20
2019-03-28T20:11:05.919Z,8.63
2019-03-28T20:13:36.696Z,8.80
2019-03-28T20:16:07.120Z,8.40
2019-03-28T20:18:37.447Z,10.10
2019-03-28T20:21:10.726Z,10.30
2019-03-28T20:23:41.126Z,8.80
2019-03-28T20:26:12.189Z,10.13
2019-03-28T20:28:45.477Z,11.53
2019-03-28T20:31:15.730Z,8.98
2019-03-28T20:33:53.956Z,8.70
2019-03-28T20:36:37.527Z,9.35
2019-03-28T20:39:04.472Z,10.28
2019-03-28T20:41:34.390Z,10.23
2019-03-28T20:44:07.550Z,8.70
2019-03-28T20:46:40.902Z,8.65
2019-03-28T20:49:11.836Z,7.67
2019-03-28T20:51:43.389Z,7.42
2019-03-28T20:54:16.501Z,9.30
2019-03-28T20:56:48.540Z,9.00
2019-03-28T20:59:28.779Z,6.75
2019-03-28T21:02:04.062Z,8.28
2019-03-28T21:04:34.750Z,7.10
2019-03-28T21:07:08.239Z,7.17
2019-03-28T21:09:40.156Z,7.08
2019-03-28T21:12:10.502Z,7.40
2019-03-28T21:14:43.039Z,6.90
2019-03-28T21:17:13.604Z,7.00
2019-03-28T21:19:44.794Z,9.50
2019-03-28T21:22:15.342Z,7.80
2019-03-28T21:24:45.894Z,6.97
2019-03-28T21:27:20.592Z,7.85
2019-03-28T21:29:51.479Z,7.53
2019-03-28T21:32:21.797Z,8.25
2019-03-28T21:34:52.069Z,7.55
2019-03-28T21:37:22.530Z,8.00
2019-03-28T21:39:58.177Z,9.05
2019-03-28T21:42:28.828Z,9.03
2019-03-28T21:44:59.466Z,7.97
2019-03-28T21:47:41.247Z,9.63
2019-03-28T21:50:11.974Z,8.33
2019-03-28T21:52:43.716Z,9.20
2019-03-28T21:55:21.323Z,8.55
2019-03-28T21:57:51.868Z,8.60
2019-03-28T22:00:22.449Z,9.40
2019-03-28T22:02:52.714Z,10.50
2019-03-28T22:05:22.973Z,11.20
2019-03-28T22:07:53.217Z,10.35
2019-03-28T22:10:23.439Z,12.80
2019-03-28T22:12:55.718Z,14.70
2019-03-28T22:15:26.115Z,15.55
2019-03-28T22:17:56.424Z,15.05
2019-03-28T22:20:26.791Z,14.35
2019-03-28T22:22:57.139Z,16.60
2019-03-28T22:25:28.736Z,15.00
2019-03-28T22:27:59.091Z,16.60
2019-03-28T22:30:29.501Z,16.50
2019-03-28T22:33:00.408Z,16.32
2019-03-28T22:35:30.789Z,16.75
2019-03-28T22:38:00.947Z,16.17
2019-03-28T22:40:31.387Z,16.97
2019-03-28T22:43:01.744Z,17.02
2019-03-28T22:45:32.075Z,15.03
2019-03-28T22:48:10.974Z,18.60
2019-03-28T22:50:38.367Z,18.77
2019-03-28T22:53:08.600Z,16.02
2019-03-28T22:55:39.109Z,18.35
2019-03-28T22:58:09.459Z,17.70
2019-03-28T23:00:45.885Z,18.62
2019-03-28T23:03:16.584Z,17.90
2019-03-28T23:05:52.745Z,17.70
2019-03-28T23:08:23.512Z,17.92
2019-03-28T23:11:03.069Z,19.62
2019-03-28T23:13:33.498Z,20.40
2019-03-28T23:16:03.830Z,19.65
2019-03-28T23:18:34.148Z,21.05
2019-03-28T23:21:04.407Z,20.68
2019-03-28T23:23:34.863Z,21.42
2019-03-28T23:26:05.402Z,19.95
2019-03-28T23:28:36.068Z,21.80
2019-03-28T23:31:06.484Z,21.75
2019-03-28T23:33:37.329Z,21.75
2019-03-28T23:36:07.793Z,23.57
2019-03-28T23:38:38.224Z,21.15
2019-03-28T23:41:13.726Z,21.65
2019-03-28T23:43:44.151Z,21.30
2019-03-28T23:46:17.066Z,24.37
2019-03-28T23:48:48.006Z,22.15
2019-03-28T23:51:18.817Z,21.68
2019-03-28T23:54:06.239Z,22.48
2019-03-28T23:56:59.375Z,23.98
